createdAt,value
2023-10-26T00:02:33.684Z,98445.28
2023-10-26T00:05:36.538Z,98439.63
2023-10-26T00:08:38.953Z,98445.13
2023-10-26T00:11:41.572Z,98449.31
2023-10-26T00:14:44.123Z,98442.72
2023-10-26T00:17:47.062Z,98451.06
2023-10-26T00:20:50.427Z,98438.63
2023-10-26T00:23:53.108Z,98441.44
2023-10-26T00:26:55.616Z,98445.28
2023-10-26T00:29:58.351Z,98458.12
2023-10-26T00:33:00.887Z,98461.69
2023-10-26T00:36:03.779Z,98469.41
2023-10-26T00:39:07.509Z,98471.53
2023-10-26T00:42:10.256Z,98472.81
2023-10-26T00:45:12.736Z,98463.34
2023-10-26T00:48:15.520Z,98468.75
2023-10-26T00:51:18.221Z,98467.22
2023-10-26T00:54:21.431Z,98468.47
2023-10-26T00:57:25.437Z,98462.81
2023-10-26T01:00:28.501Z,98469.78
2023-10-26T01:03:31.604Z,98475.59
2023-10-26T01:06:34.593Z,98479.09
2023-10-26T01:09:37.166Z,98483.25
2023-10-26T01:12:40.279Z,98484.00
2023-10-26T01:15:42.816Z,98488.44
2023-10-26T01:18:45.455Z,98492.69
2023-10-26T01:21:51.984Z,98493.91
2023-10-26T01:24:55.980Z,98481.94
2023-10-26T01:27:59.163Z,98486.97
2023-10-26T01:31:01.880Z,98470.56
2023-10-26T01:34:04.730Z,98464.91
2023-10-26T01:37:07.725Z,98460.38
2023-10-26T01:40:10.630Z,98462.03
2023-10-26T01:43:13.252Z,98447.31
2023-10-26T01:46:15.612Z,98479.81
2023-10-26T01:49:18.391Z,98488.56
2023-10-26T01:52:20.841Z,98484.91
2023-10-26T01:55:23.735Z,98485.66
2023-10-26T01:58:26.147Z,98486.47
2023-10-26T02:01:28.790Z,98495.28
2023-10-26T02:04:31.480Z,98487.06
2023-10-26T02:07:34.582Z,98503.09
2023-10-26T02:10:37.549Z,98504.69
2023-10-26T02:13:41.171Z,98512.50
2023-10-26T02:16:43.867Z,98525.62
2023-10-26T02:19:46.201Z,98524.38
2023-10-26T02:22:49.151Z,98526.66
2023-10-26T02:25:51.516Z,98526.97
2023-10-26T02:28:54.504Z,98517.47
2023-10-26T02:32:00.164Z,98534.06
2023-10-26T02:41:49.182Z,98521.25
2023-10-26T02:44:51.930Z,98540.13
2023-10-26T02:47:54.392Z,98529.87
2023-10-26T02:50:57.859Z,98524.75
2023-10-26T02:54:00.308Z,98535.75
2023-10-26T02:57:03.036Z,98542.75
2023-10-26T03:00:07.160Z,98543.44
2023-10-26T03:03:10.633Z,98538.22
2023-10-26T03:06:13.262Z,98535.16
2023-10-26T03:09:15.982Z,98547.03
2023-10-26T03:12:20.145Z,98545.34
2023-10-26T03:29:36.792Z,98530.09
2023-10-26T03:32:39.235Z,98528.25
2023-10-26T03:35:45.057Z,98526.22
2023-10-26T03:38:47.279Z,98516.16
2023-10-26T03:46:15.037Z,98519.53
2023-10-26T03:49:17.665Z,98528.41
2023-10-26T03:52:23.215Z,98532.00
2023-10-26T03:55:26.271Z,98540.97
2023-10-26T03:58:28.713Z,98538.56
2023-10-26T04:01:31.404Z,98543.56
2023-10-26T04:04:34.484Z,98542.16
2023-10-26T04:07:36.948Z,98535.97
2023-10-26T04:10:39.628Z,98538.09
2023-10-26T04:13:42.091Z,98531.91
2023-10-26T04:16:48.773Z,98544.50
2023-10-26T04:19:51.150Z,98540.34
2023-10-26T04:22:53.791Z,98543.25
2023-10-26T04:25:56.148Z,98529.09
2023-10-26T04:28:58.806Z,98538.75
2023-10-26T04:32:01.173Z,98545.72
2023-10-26T04:35:04.564Z,98546.16
2023-10-26T04:38:06.972Z,98552.56
2023-10-26T04:41:09.646Z,98558.88
2023-10-26T04:44:13.047Z,98567.56
2023-10-26T04:47:15.812Z,98565.75
2023-10-26T04:50:18.186Z,98565.34
2023-10-26T04:53:21.444Z,98560.56
2023-10-26T04:56:23.801Z,98566.25
2023-10-26T04:59:26.636Z,98560.34
2023-10-26T05:02:29.033Z,98554.41
2023-10-26T05:05:31.738Z,98552.84
2023-10-26T05:08:34.192Z,98554.72
2023-10-26T05:11:36.852Z,98552.16
2023-10-26T05:14:40.274Z,98559.53
2023-10-26T05:17:43.000Z,98552.56
2023-10-26T05:20:52.332Z,98550.81
2023-10-26T05:23:58.197Z,98551.84
2023-10-26T05:27:00.650Z,98554.72
2023-10-26T05:30:03.887Z,98561.97
2023-10-26T05:33:06.396Z,98553.84
2023-10-26T05:36:09.381Z,98570.09
2023-10-26T05:39:11.890Z,98572.50
2023-10-26T05:42:14.645Z,98565.78
2023-10-26T05:45:17.126Z,98562.19
2023-10-26T05:48:20.903Z,98562.97
2023-10-26T05:51:23.430Z,98569.09
2023-10-26T05:54:26.220Z,98568.84
2023-10-26T05:57:28.786Z,98586.16
2023-10-26T06:00:33.164Z,98578.84
2023-10-26T06:03:36.191Z,98574.94
2023-10-26T06:06:38.877Z,98585.28
2023-10-26T06:09:41.754Z,98585.63
2023-10-26T06:12:44.189Z,98592.16
2023-10-26T06:15:46.824Z,98591.75
2023-10-26T06:18:49.246Z,98592.50
2023-10-26T06:21:51.929Z,98591.87
2023-10-26T06:24:54.332Z,98589.63
2023-10-26T06:27:57.001Z,98581.94
2023-10-26T06:31:09.598Z,98586.13
2023-10-26T06:34:12.508Z,98597.84
2023-10-26T06:37:15.047Z,98593.91
2023-10-26T06:40:17.772Z,98591.50
2023-10-26T06:43:20.245Z,98597.72
2023-10-26T06:46:23.320Z,98606.97
2023-10-26T06:49:31.016Z,98607.13
2023-10-26T06:52:35.886Z,98620.69
2023-10-26T06:55:38.294Z,98626.97
2023-10-26T06:58:43.425Z,98626.41
2023-10-26T07:02:09.009Z,98630.56
2023-10-26T07:05:08.987Z,98622.75
2023-10-26T07:08:11.407Z,98616.25
2023-10-26T07:11:14.222Z,98610.22
2023-10-26T07:14:17.098Z,98627.84
2023-10-26T07:17:19.737Z,98635.03
2023-10-26T07:20:22.168Z,98624.06
2023-10-26T07:23:24.820Z,98622.56
2023-10-26T07:26:27.385Z,98637.97
2023-10-26T07:29:30.372Z,98624.88
2023-10-26T07:32:32.844Z,98624.41
2023-10-26T07:35:41.526Z,98637.09
2023-10-26T07:38:44.008Z,98637.31
2023-10-26T07:42:06.410Z,98638.94
2023-10-26T07:45:09.588Z,98628.53
2023-10-26T07:48:12.696Z,98635.38
2023-10-26T07:51:15.231Z,98642.41
2023-10-26T07:54:18.918Z,98642.34
2023-10-26T07:57:21.687Z,98647.75
2023-10-26T08:00:24.341Z,98659.47
2023-10-26T08:10:06.696Z,98667.28
2023-10-26T08:20:23.861Z,98671.03
2023-10-26T08:23:26.009Z,98669.44
2023-10-26T08:30:18.355Z,98674.91
2023-10-26T08:33:58.543Z,98688.38
2023-10-26T08:54:50.728Z,98646.38
2023-10-26T08:57:55.132Z,98656.59
2023-10-26T09:01:35.476Z,98646.22
2023-10-26T09:05:05.317Z,98649.50
2023-10-26T09:08:50.914Z,98642.59
2023-10-26T09:12:57.997Z,98632.03
2023-10-26T09:53:27.976Z,98616.25
2023-10-26T09:57:19.378Z,98614.31
2023-10-26T10:12:20.081Z,98599.00
2023-10-26T10:15:54.162Z,98598.63
2023-10-26T10:58:16.106Z,98565.28
2023-10-26T11:01:22.421Z,98561.03
2023-10-26T11:04:24.891Z,98562.03
2023-10-26T11:07:28.765Z,98551.03
2023-10-26T11:10:31.888Z,98549.59
2023-10-26T11:13:34.556Z,98555.81
2023-10-26T11:16:42.449Z,98542.66
2023-10-26T11:19:46.225Z,98540.13
2023-10-26T11:22:48.758Z,98532.81
2023-10-26T11:25:51.533Z,98535.31
2023-10-26T11:28:53.994Z,98533.16
2023-10-26T11:31:56.664Z,98541.53
2023-10-26T11:35:09.774Z,98544.78
2023-10-26T11:38:12.404Z,98538.50
2023-10-26T11:41:24.763Z,98536.44
2023-10-26T11:44:28.677Z,98543.91
2023-10-26T11:47:53.913Z,98544.25
2023-10-26T11:50:56.761Z,98533.81
2023-10-26T11:54:11.761Z,98538.06
2023-10-26T11:57:14.508Z,98539.00
2023-10-26T12:00:18.266Z,98532.94
2023-10-26T12:03:21.032Z,98530.41
2023-10-26T12:06:23.603Z,98534.31
2023-10-26T12:09:26.304Z,98520.84
2023-10-26T12:12:28.939Z,98530.84
2023-10-26T12:15:31.786Z,98537.13
2023-10-26T12:18:35.543Z,98536.59
2023-10-26T12:21:38.288Z,98533.28
2023-10-26T12:24:40.705Z,98526.81
2023-10-26T12:28:21.024Z,98544.81
2023-10-26T12:31:05.910Z,98535.13
2023-10-26T12:34:08.712Z,98541.53
2023-10-26T12:37:11.822Z,98523.13
2023-10-26T12:40:14.708Z,98518.66
2023-10-26T12:43:17.149Z,98520.72
2023-10-26T12:46:19.837Z,98501.03
2023-10-26T12:49:22.456Z,98493.84
2023-10-26T12:52:25.156Z,98486.31
2023-10-26T12:55:27.522Z,98496.44
2023-10-26T12:58:30.199Z,98500.09
2023-10-26T13:01:32.670Z,98527.66
2023-10-26T13:04:35.355Z,98529.50
2023-10-26T13:07:37.836Z,98521.87
2023-10-26T13:10:40.618Z,98505.78
2023-10-26T13:13:43.141Z,98501.09
2023-10-26T13:16:49.373Z,98499.81
2023-10-26T13:19:59.633Z,98498.28
2023-10-26T13:23:02.350Z,98497.38
2023-10-26T13:26:04.700Z,98487.69
2023-10-26T13:29:07.514Z,98488.75
2023-10-26T13:32:09.956Z,98493.22
2023-10-26T13:35:12.955Z,98502.81
2023-10-26T13:38:15.437Z,98508.81
2023-10-26T13:45:24.804Z,98508.41
2023-10-26T13:48:28.563Z,98490.69
2023-10-26T13:51:30.983Z,98483.81
2023-10-26T13:54:33.743Z,98492.19
2023-10-26T13:57:36.143Z,98504.12
2023-10-26T14:00:38.935Z,98504.53
2023-10-26T14:03:41.965Z,98494.97
2023-10-26T14:06:44.435Z,98507.09
2023-10-26T14:09:47.919Z,98500.34
2023-10-26T14:12:51.183Z,98500.06
2023-10-26T14:15:53.829Z,98507.06
2023-10-26T14:18:56.295Z,98499.84
2023-10-26T14:21:59.070Z,98506.19
2023-10-26T14:25:01.484Z,98504.34
2023-10-26T14:28:04.371Z,98516.75
2023-10-26T14:31:06.982Z,98513.66
2023-10-26T14:34:09.750Z,98517.72
2023-10-26T14:37:13.131Z,98520.13
2023-10-26T14:40:16.131Z,98520.69
2023-10-26T14:43:19.704Z,98523.78
2023-10-26T14:46:22.523Z,98517.94
2023-10-26T14:49:25.467Z,98512.25
2023-10-26T14:52:28.235Z,98507.97
2023-10-26T14:55:32.778Z,98501.97
2023-10-26T14:58:35.512Z,98509.69
2023-10-26T15:01:38.014Z,98495.53
2023-10-26T15:04:40.768Z,98499.66
2023-10-26T15:07:43.200Z,98496.16
2023-10-26T15:10:47.043Z,98497.50
2023-10-26T15:13:50.092Z,98501.44
2023-10-26T15:16:52.834Z,98492.56
2023-10-26T15:19:55.269Z,98496.00
2023-10-26T15:22:57.961Z,98495.19
2023-10-26T15:26:04.869Z,98511.59
2023-10-26T15:29:07.505Z,98525.88
2023-10-26T15:32:10.071Z,98527.44
2023-10-26T15:35:12.759Z,98507.44
2023-10-26T15:38:15.152Z,98504.81
2023-10-26T15:41:17.791Z,98515.13
2023-10-26T15:44:21.651Z,98511.97
2023-10-26T15:47:25.496Z,98521.66
2023-10-26T15:50:29.722Z,98516.63
2023-10-26T15:53:32.590Z,98520.47
2023-10-26T15:56:35.143Z,98521.34
2023-10-26T15:59:38.108Z,98519.78
2023-10-26T16:02:46.052Z,98524.66
2023-10-26T16:05:48.872Z,98511.19
2023-10-26T16:08:51.240Z,98495.84
2023-10-26T16:11:53.923Z,98498.72
2023-10-26T16:14:56.277Z,98486.13
2023-10-26T16:17:58.963Z,98481.06
2023-10-26T16:21:02.563Z,98464.13
2023-10-26T16:24:05.586Z,98461.34
2023-10-26T16:27:07.922Z,98461.97
2023-10-26T16:30:10.856Z,98482.03
2023-10-26T16:33:14.478Z,98492.69
2023-10-26T16:36:17.129Z,98484.03
2023-10-26T16:39:20.166Z,98491.63
2023-10-26T16:42:23.506Z,98502.56
2023-10-26T16:45:25.933Z,98494.59
2023-10-26T16:48:28.667Z,98505.78
2023-10-26T16:51:31.051Z,98511.19
2023-10-26T16:54:33.703Z,98496.78
2023-10-26T16:57:36.252Z,98494.34
2023-10-26T17:00:39.141Z,98500.81
2023-10-26T17:03:41.662Z,98494.88
2023-10-26T17:06:44.471Z,98487.09
2023-10-26T17:09:47.164Z,98476.53
2023-10-26T17:12:49.939Z,98472.25
2023-10-26T17:15:55.360Z,98463.59
2023-10-26T17:18:58.132Z,98454.78
2023-10-26T17:22:00.526Z,98444.84
2023-10-26T17:25:03.673Z,98447.22
2023-10-26T17:28:06.143Z,98450.25
2023-10-26T17:31:09.172Z,98442.56
2023-10-26T17:34:11.881Z,98437.66
2023-10-26T17:37:14.567Z,98441.56
2023-10-26T17:40:16.999Z,98434.09
2023-10-26T17:43:19.672Z,98434.50
2023-10-26T17:46:22.529Z,98447.88
2023-10-26T17:49:25.289Z,98446.28
2023-10-26T17:52:27.624Z,98424.72
2023-10-26T17:55:30.509Z,98452.03
2023-10-26T17:58:32.897Z,98456.97
2023-10-26T18:01:37.764Z,98451.91
2023-10-26T18:04:41.247Z,98451.59
2023-10-26T18:07:43.620Z,98472.56
2023-10-26T18:10:46.272Z,98471.44
2023-10-26T18:13:48.697Z,98469.00
2023-10-26T18:16:55.452Z,98464.81
2023-10-26T18:19:58.801Z,98453.34
2023-10-26T18:23:03.050Z,98454.84
2023-10-26T18:26:05.470Z,98454.44
2023-10-26T18:29:08.429Z,98449.22
2023-10-26T18:32:14.023Z,98448.38
2023-10-26T18:35:17.048Z,98445.09
2023-10-26T18:38:19.736Z,98442.88
2023-10-26T18:41:26.908Z,98451.66
2023-10-26T18:44:29.649Z,98452.69
2023-10-26T18:47:32.414Z,98452.34
2023-10-26T18:50:34.998Z,98456.72
2023-10-26T18:53:40.042Z,98456.41
2023-10-26T18:56:42.742Z,98447.50
2023-10-26T18:59:45.815Z,98442.12
2023-10-26T19:02:48.444Z,98449.69
2023-10-26T19:05:52.077Z,98439.34
2023-10-26T19:08:54.473Z,98449.66
2023-10-26T19:11:57.424Z,98439.50
2023-10-26T19:14:59.817Z,98446.94
2023-10-26T19:18:03.934Z,98437.09
2023-10-26T19:21:09.040Z,98441.53
2023-10-26T19:24:11.985Z,98439.69
2023-10-26T19:27:14.425Z,98450.19
2023-10-26T19:30:19.523Z,98442.25
2023-10-26T19:33:23.510Z,98455.59
2023-10-26T19:36:26.778Z,98448.75
2023-10-26T19:39:30.549Z,98450.75
2023-10-26T19:42:38.941Z,98459.59
2023-10-26T19:45:43.404Z,98445.09
2023-10-26T19:48:46.584Z,98453.22
2023-10-26T19:51:49.518Z,98461.50
2023-10-26T19:54:52.566Z,98465.09
2023-10-26T19:57:55.326Z,98461.00
2023-10-26T20:00:58.321Z,98458.81
2023-10-26T20:04:01.548Z,98457.06
2023-10-26T20:07:04.767Z,98448.25
2023-10-26T20:10:09.311Z,98439.63
2023-10-26T20:13:12.250Z,98428.72
2023-10-26T20:16:15.619Z,98435.06
2023-10-26T20:19:18.307Z,98435.56
2023-10-26T20:22:21.098Z,98435.84
2023-10-26T20:25:23.772Z,98446.06
2023-10-26T20:28:26.418Z,98421.59
2023-10-26T20:31:29.454Z,98406.84
2023-10-26T20:34:32.506Z,98416.41
2023-10-26T20:37:35.481Z,98417.06
2023-10-26T20:40:40.918Z,98418.97
2023-10-26T20:43:44.465Z,98411.38
2023-10-26T20:46:47.245Z,98410.50
2023-10-26T20:49:53.116Z,98406.78
2023-10-26T20:52:55.799Z,98406.94
2023-10-26T20:55:59.177Z,98397.16
2023-10-26T20:59:01.820Z,98393.59
2023-10-26T21:02:04.742Z,98389.31
2023-10-26T21:05:07.775Z,98387.94
2023-10-26T21:08:13.520Z,98395.94
2023-10-26T21:11:17.644Z,98387.94
2023-10-26T21:14:20.089Z,98384.56
2023-10-26T21:17:26.057Z,98372.38
2023-10-26T21:20:28.473Z,98371.31
2023-10-26T21:23:31.292Z,98371.56
2023-10-26T21:26:33.686Z,98371.38
2023-10-26T21:29:36.367Z,98368.00
2023-10-26T21:32:39.782Z,98369.81
2023-10-26T21:35:42.494Z,98359.75
2023-10-26T21:38:44.930Z,98357.91
2023-10-26T21:41:47.583Z,98344.88
2023-10-26T21:44:50.007Z,98338.03
2023-10-26T21:47:52.669Z,98348.53
2023-10-26T21:50:55.028Z,98355.81
2023-10-26T21:53:58.192Z,98362.53
2023-10-26T21:57:00.564Z,98362.00
2023-10-26T22:00:06.655Z,98359.09
2023-10-26T22:03:14.951Z,98355.00
2023-10-26T22:06:17.614Z,98377.59
2023-10-26T22:09:22.168Z,98365.78
2023-10-26T22:12:24.996Z,98359.91
2023-10-26T22:15:27.420Z,98364.34
2023-10-26T22:18:30.210Z,98368.84
2023-10-26T22:21:32.548Z,98372.78
2023-10-26T22:24:35.336Z,98376.22
2023-10-26T22:27:37.723Z,98366.16
2023-10-26T22:30:40.397Z,98369.59
2023-10-26T22:33:42.742Z,98371.34
2023-10-26T22:36:45.412Z,98369.66
2023-10-26T22:39:48.399Z,98372.56
2023-10-26T22:42:51.130Z,98359.59
2023-10-26T22:45:53.799Z,98363.91
2023-10-26T22:48:56.497Z,98370.53
2023-10-26T22:51:58.836Z,98354.94
2023-10-26T22:55:01.695Z,98346.94
2023-10-26T22:58:04.201Z,98349.56
2023-10-26T23:01:07.137Z,98344.00
2023-10-26T23:04:10.145Z,98335.50
2023-10-26T23:07:12.955Z,98324.47
2023-10-26T23:10:15.452Z,98321.00
2023-10-26T23:13:18.202Z,98317.66
2023-10-26T23:16:21.271Z,98308.19
2023-10-26T23:19:24.068Z,98295.72
2023-10-26T23:22:26.503Z,98296.09
2023-10-26T23:25:29.228Z,98298.56
2023-10-26T23:28:31.706Z,98292.13
2023-10-26T23:31:34.378Z,98288.66
2023-10-26T23:34:38.674Z,98290.62
2023-10-26T23:37:41.654Z,98279.84
2023-10-26T23:40:44.518Z,98277.00
2023-10-26T23:43:48.745Z,98277.72
2023-10-26T23:46:51.210Z,98271.75
2023-10-26T23:49:54.275Z,98271.06
2023-10-26T23:52:56.659Z,98272.25
2023-10-26T23:55:59.443Z,98267.25
2023-10-26T23:59:03.616Z,98257.09
